sensor_id;sensor_type;location;lat;lon;timestamp;P1;durP1;ratioP1;P2;durP2;ratioP2
61821;SDS011;47749;51.104;7.008;2023-12-04T00:00:10;19.30;;;10.60;;
61821;SDS011;47749;51.104;7.008;2023-12-04T00:00:33;18.23;;;10.15;;
61821;SDS011;47749;51.104;7.008;2023-12-04T00:00:53;18.17;;;9.53;;
61821;SDS011;47749;51.104;7.008;2023-12-04T00:01:14;17.27;;;9.55;;
61821;SDS011;47749;51.104;7.008;2023-12-04T00:01:35;18.23;;;9.88;;
61821;SDS011;47749;51.104;7.008;2023-12-04T00:01:55;18.50;;;9.80;;
61821;SDS011;47749;51.104;7.008;2023-12-04T00:02:15;17.53;;;9.63;;
61821;SDS011;47749;51.104;7.008;2023-12-04T00:02:36;16.93;;;9.47;;
61821;SDS011;47749;51.104;7.008;2023-12-04T00:02:56;17.23;;;10.33;;
61821;SDS011;47749;51.104;7.008;2023-12-04T00:03:16;16.60;;;10.07;;
61821;SDS011;47749;51.104;7.008;2023-12-04T00:03:37;17.03;;;9.80;;
61821;SDS011;47749;51.104;7.008;2023-12-04T00:03:57;16.83;;;9.93;;
61821;SDS011;47749;51.104;7.008;2023-12-04T00:04:17;17.13;;;9.68;;
61821;SDS011;47749;51.104;7.008;2023-12-04T00:04:38;19.03;;;10.57;;
61821;SDS011;47749;51.104;7.008;2023-12-04T00:04:59;18.20;;;10.60;;
61821;SDS011;47749;51.104;7.008;2023-12-04T00:05:19;18.67;;;10.43;;
61821;SDS011;47749;51.104;7.008;2023-12-04T00:05:42;18.50;;;10.67;;
61821;SDS011;47749;51.104;7.008;2023-12-04T00:06:02;15.98;;;9.70;;
61821;SDS011;47749;51.104;7.008;2023-12-04T00:06:23;17.30;;;9.80;;
61821;SDS011;47749;51.104;7.008;2023-12-04T00:06:44;15.68;;;9.35;;
61821;SDS011;47749;51.104;7.008;2023-12-04T00:07:05;16.63;;;9.35;;
61821;SDS011;47749;51.104;7.008;2023-12-04T00:07:26;17.15;;;9.77;;
61821;SDS011;47749;51.104;7.008;2023-12-04T00:07:47;18.98;;;10.90;;
61821;SDS011;47749;51.104;7.008;2023-12-04T00:08:08;18.27;;;10.55;;
61821;SDS011;47749;51.104;7.008;2023-12-04T00:08:29;17.83;;;9.88;;
61821;SDS011;47749;51.104;7.008;2023-12-04T00:08:50;17.48;;;10.25;;
61821;SDS011;47749;51.104;7.008;2023-12-04T00:09:12;17.48;;;9.95;;
61821;SDS011;47749;51.104;7.008;2023-12-04T00:09:32;17.40;;;9.50;;
61821;SDS011;47749;51.104;7.008;2023-12-04T00:09:52;18.87;;;9.80;;
61821;SDS011;47749;51.104;7.008;2023-12-04T00:10:13;17.65;;;9.88;;
61821;SDS011;47749;51.104;7.008;2023-12-04T00:10:34;18.15;;;9.88;;
61821;SDS011;47749;51.104;7.008;2023-12-04T00:10:54;17.07;;;9.03;;
61821;SDS011;47749;51.104;7.008;2023-12-04T00:11:14;15.83;;;9.53;;
61821;SDS011;47749;51.104;7.008;2023-12-04T00:11:35;15.10;;;8.95;;
61821;SDS011;47749;51.104;7.008;2023-12-04T00:11:55;17.53;;;9.80;;
61821;SDS011;47749;51.104;7.008;2023-12-04T00:12:15;17.43;;;9.80;;
61821;SDS011;47749;51.104;7.008;2023-12-04T00:12:35;16.77;;;9.70;;
61821;SDS011;47749;51.104;7.008;2023-12-04T00:12:56;16.60;;;10.00;;
61821;SDS011;47749;51.104;7.008;2023-12-04T00:13:16;16.05;;;9.60;;
61821;SDS011;47749;51.104;7.008;2023-12-04T00:13:36;15.17;;;8.37;;
61821;SDS011;47749;51.104;7.008;2023-12-04T00:13:57;16.50;;;9.03;;
61821;SDS011;47749;51.104;7.008;2023-12-04T00:14:17;19.37;;;10.27;;
61821;SDS011;47749;51.104;7.008;2023-12-04T00:14:38;17.50;;;10.03;;
61821;SDS011;47749;51.104;7.008;2023-12-04T00:14:58;16.77;;;9.77;;
61821;SDS011;47749;51.104;7.008;2023-12-04T00:15:19;17.23;;;9.50;;
61821;SDS011;47749;51.104;7.008;2023-12-04T00:15:39;16.80;;;9.35;;
61821;SDS011;47749;51.104;7.008;2023-12-04T00:15:59;17.13;;;10.03;;
61821;SDS011;47749;51.104;7.008;2023-12-04T00:16:19;15.82;;;9.52;;
61821;SDS011;47749;51.104;7.008;2023-12-04T00:16:40;17.73;;;9.80;;
61821;SDS011;47749;51.104;7.008;2023-12-04T00:17:00;18.67;;;9.73;;
61821;SDS011;47749;51.104;7.008;2023-12-04T00:17:20;17.15;;;9.82;;
61821;SDS011;47749;51.104;7.008;2023-12-04T00:17:40;15.97;;;9.70;;
61821;SDS011;47749;51.104;7.008;2023-12-04T00:18:01;19.07;;;9.77;;
61821;SDS011;47749;51.104;7.008;2023-12-04T00:18:21;17.00;;;9.55;;
61821;SDS011;47749;51.104;7.008;2023-12-04T00:18:41;17.20;;;9.90;;
61821;SDS011;47749;51.104;7.008;2023-12-04T00:19:01;15.77;;;9.00;;
61821;SDS011;47749;51.104;7.008;2023-12-04T00:19:22;16.95;;;9.40;;
61821;SDS011;47749;51.104;7.008;2023-12-04T00:19:42;15.53;;;9.30;;
61821;SDS011;47749;51.104;7.008;2023-12-04T00:20:02;15.63;;;9.30;;
61821;SDS011;47749;51.104;7.008;2023-12-04T00:20:23;16.63;;;9.25;;
61821;SDS011;47749;51.104;7.008;2023-12-04T00:20:43;16.00;;;9.43;;
61821;SDS011;47749;51.104;7.008;2023-12-04T00:21:03;16.23;;;9.70;;
61821;SDS011;47749;51.104;7.008;2023-12-04T00:21:24;14.75;;;8.63;;
61821;SDS011;47749;51.104;7.008;2023-12-04T00:21:44;16.23;;;9.50;;
61821;SDS011;47749;51.104;7.008;2023-12-04T00:22:04;16.60;;;9.43;;
61821;SDS011;47749;51.104;7.008;2023-12-04T00:22:25;17.70;;;9.17;;
61821;SDS011;47749;51.104;7.008;2023-12-04T00:22:45;18.73;;;9.80;;
61821;SDS011;47749;51.104;7.008;2023-12-04T00:23:05;16.80;;;9.53;;
61821;SDS011;47749;51.104;7.008;2023-12-04T00:23:26;18.17;;;9.43;;
61821;SDS011;47749;51.104;7.008;2023-12-04T00:23:46;18.27;;;9.70;;
61821;SDS011;47749;51.104;7.008;2023-12-04T00:24:06;18.33;;;10.03;;
61821;SDS011;47749;51.104;7.008;2023-12-04T00:24:27;16.45;;;10.20;;
61821;SDS011;47749;51.104;7.008;2023-12-04T00:24:47;16.83;;;10.10;;
61821;SDS011;47749;51.104;7.008;2023-12-04T00:25:07;17.40;;;10.40;;
61821;SDS011;47749;51.104;7.008;2023-12-04T00:25:27;16.77;;;10.10;;
61821;SDS011;47749;51.104;7.008;2023-12-04T00:25:48;15.20;;;9.40;;
61821;SDS011;47749;51.104;7.008;2023-12-04T00:26:08;16.93;;;9.67;;
61821;SDS011;47749;51.104;7.008;2023-12-04T00:26:28;16.20;;;9.50;;
61821;SDS011;47749;51.104;7.008;2023-12-04T00:26:49;16.03;;;9.47;;
61821;SDS011;47749;51.104;7.008;2023-12-04T00:27:09;16.77;;;9.60;;
61821;SDS011;47749;51.104;7.008;2023-12-04T00:27:30;16.95;;;9.63;;
61821;SDS011;47749;51.104;7.008;2023-12-04T00:27:50;15.17;;;9.63;;
61821;SDS011;47749;51.104;7.008;2023-12-04T00:28:11;15.37;;;10.07;;
61821;SDS011;47749;51.104;7.008;2023-12-04T00:28:31;16.50;;;10.13;;
61821;SDS011;47749;51.104;7.008;2023-12-04T00:28:51;16.97;;;9.90;;
61821;SDS011;47749;51.104;7.008;2023-12-04T00:29:11;16.27;;;9.80;;
61821;SDS011;47749;51.104;7.008;2023-12-04T00:29:32;16.70;;;9.98;;
61821;SDS011;47749;51.104;7.008;2023-12-04T00:29:52;16.63;;;9.00;;
61821;SDS011;47749;51.104;7.008;2023-12-04T00:30:12;19.38;;;9.60;;
61821;SDS011;47749;51.104;7.008;2023-12-04T00:30:33;18.60;;;10.73;;
61821;SDS011;47749;51.104;7.008;2023-12-04T00:30:53;16.80;;;9.90;;
61821;SDS011;47749;51.104;7.008;2023-12-04T00:31:14;17.57;;;9.73;;
61821;SDS011;47749;51.104;7.008;2023-12-04T00:31:34;16.87;;;9.50;;
61821;SDS011;47749;51.104;7.008;2023-12-04T00:31:54;16.13;;;9.57;;
61821;SDS011;47749;51.104;7.008;2023-12-04T00:32:17;15.90;;;9.43;;
61821;SDS011;47749;51.104;7.008;2023-12-04T00:32:37;15.57;;;9.18;;
61821;SDS011;47749;51.104;7.008;2023-12-04T00:32:57;14.47;;;8.57;;
61821;SDS011;47749;51.104;7.008;2023-12-04T00:33:17;17.23;;;9.33;;
61821;SDS011;47749;51.104;7.008;2023-12-04T00:33:37;17.08;;;9.68;;
61821;SDS011;47749;51.104;7.008;2023-12-04T00:33:58;16.67;;;10.20;;
61821;SDS011;47749;51.104;7.008;2023-12-04T00:34:18;15.80;;;9.60;;
61821;SDS011;47749;51.104;7.008;2023-12-04T00:34:38;15.40;;;9.00;;
61821;SDS011;47749;51.104;7.008;2023-12-04T00:34:58;15.90;;;9.73;;
61821;SDS011;47749;51.104;7.008;2023-12-04T00:35:19;17.17;;;10.13;;
61821;SDS011;47749;51.104;7.008;2023-12-04T00:35:39;17.27;;;9.75;;
61821;SDS011;47749;51.104;7.008;2023-12-04T00:35:59;16.90;;;9.87;;
61821;SDS011;47749;51.104;7.008;2023-12-04T00:36:19;16.03;;;9.20;;
61821;SDS011;47749;51.104;7.008;2023-12-04T00:36:40;16.15;;;9.25;;
61821;SDS011;47749;51.104;7.008;2023-12-04T00:37:00;15.73;;;9.40;;
61821;SDS011;47749;51.104;7.008;2023-12-04T00:37:20;15.57;;;9.30;;
61821;SDS011;47749;51.104;7.008;2023-12-04T00:37:41;16.02;;;9.23;;
61821;SDS011;47749;51.104;7.008;2023-12-04T00:38:01;15.63;;;9.00;;
61821;SDS011;47749;51.104;7.008;2023-12-04T00:38:21;14.95;;;9.20;;
61821;SDS011;47749;51.104;7.008;2023-12-04T00:38:42;15.73;;;9.23;;
61821;SDS011;47749;51.104;7.008;2023-12-04T00:39:02;17.40;;;9.77;;
61821;SDS011;47749;51.104;7.008;2023-12-04T00:39:24;17.13;;;9.27;;
61821;SDS011;47749;51.104;7.008;2023-12-04T00:39:44;16.30;;;8.50;;
61821;SDS011;47749;51.104;7.008;2023-12-04T00:40:05;14.73;;;8.40;;
61821;SDS011;47749;51.104;7.008;2023-12-04T00:40:25;15.18;;;8.52;;
61821;SDS011;47749;51.104;7.008;2023-12-04T00:40:46;16.30;;;9.27;;
61821;SDS011;47749;51.104;7.008;2023-12-04T00:41:06;16.50;;;9.50;;
61821;SDS011;47749;51.104;7.008;2023-12-04T00:41:26;18.13;;;10.10;;
61821;SDS011;47749;51.104;7.008;2023-12-04T00:41:46;16.87;;;9.30;;
61821;SDS011;47749;51.104;7.008;2023-12-04T00:42:07;15.35;;;9.35;;
61821;SDS011;47749;51.104;7.008;2023-12-04T00:42:27;16.17;;;9.40;;
61821;SDS011;47749;51.104;7.008;2023-12-04T00:42:47;15.77;;;9.27;;
61821;SDS011;47749;51.104;7.008;2023-12-04T00:43:07;16.20;;;9.77;;
61821;SDS011;47749;51.104;7.008;2023-12-04T00:43:28;16.33;;;9.47;;
61821;SDS011;47749;51.104;7.008;2023-12-04T00:43:48;15.87;;;9.27;;
61821;SDS011;47749;51.104;7.008;2023-12-04T00:44:08;16.88;;;9.73;;
61821;SDS011;47749;51.104;7.008;2023-12-04T00:44:29;16.63;;;9.50;;
61821;SDS011;47749;51.104;7.008;2023-12-04T00:44:49;15.37;;;8.97;;
61821;SDS011;47749;51.104;7.008;2023-12-04T00:45:09;15.98;;;9.30;;
61821;SDS011;47749;51.104;7.008;2023-12-04T00:45:30;15.53;;;9.23;;
61821;SDS011;47749;51.104;7.008;2023-12-04T00:45:50;16.30;;;9.50;;
61821;SDS011;47749;51.104;7.008;2023-12-04T00:46:10;15.93;;;9.57;;
61821;SDS011;47749;51.104;7.008;2023-12-04T00:46:31;16.63;;;9.97;;
61821;SDS011;47749;51.104;7.008;2023-12-04T00:46:51;16.40;;;9.05;;
61821;SDS011;47749;51.104;7.008;2023-12-04T00:47:11;15.40;;;9.03;;
61821;SDS011;47749;51.104;7.008;2023-12-04T00:47:31;15.63;;;9.57;;
61821;SDS011;47749;51.104;7.008;2023-12-04T00:47:52;16.05;;;9.18;;
61821;SDS011;47749;51.104;7.008;2023-12-04T00:48:12;16.67;;;8.70;;
61821;SDS011;47749;51.104;7.008;2023-12-04T00:48:32;15.98;;;9.20;;
61821;SDS011;47749;51.104;7.008;2023-12-04T00:48:52;16.10;;;9.20;;
61821;SDS011;47749;51.104;7.008;2023-12-04T00:49:13;15.43;;;8.63;;
61821;SDS011;47749;51.104;7.008;2023-12-04T00:49:33;15.60;;;8.83;;
61821;SDS011;47749;51.104;7.008;2023-12-04T00:49:53;13.00;;;7.30;;
61821;SDS011;47749;51.104;7.008;2023-12-04T00:50:14;15.03;;;8.43;;
61821;SDS011;47749;51.104;7.008;2023-12-04T00:50:34;15.98;;;9.07;;
61821;SDS011;47749;51.104;7.008;2023-12-04T00:50:54;15.90;;;9.13;;
61821;SDS011;47749;51.104;7.008;2023-12-04T00:51:14;16.27;;;8.97;;
61821;SDS011;47749;51.104;7.008;2023-12-04T00:51:37;16.70;;;9.20;;
61821;SDS011;47749;51.104;7.008;2023-12-04T00:51:58;17.02;;;9.68;;
61821;SDS011;47749;51.104;7.008;2023-12-04T00:52:19;16.55;;;9.35;;
61821;SDS011;47749;51.104;7.008;2023-12-04T00:52:39;15.53;;;9.07;;
61821;SDS011;47749;51.104;7.008;2023-12-04T00:52:59;16.67;;;9.50;;
61821;SDS011;47749;51.104;7.008;2023-12-04T00:53:19;16.70;;;9.40;;
61821;SDS011;47749;51.104;7.008;2023-12-04T00:53:40;16.80;;;9.10;;
61821;SDS011;47749;51.104;7.008;2023-12-04T00:54:00;16.63;;;9.77;;
61821;SDS011;47749;51.104;7.008;2023-12-04T00:54:20;15.10;;;9.60;;
61821;SDS011;47749;51.104;7.008;2023-12-04T00:54:40;15.50;;;9.00;;
61821;SDS011;47749;51.104;7.008;2023-12-04T00:55:01;15.67;;;9.10;;
61821;SDS011;47749;51.104;7.008;2023-12-04T00:55:21;15.05;;;9.25;;
61821;SDS011;47749;51.104;7.008;2023-12-04T00:55:41;16.27;;;9.47;;
61821;SDS011;47749;51.104;7.008;2023-12-04T00:56:01;15.83;;;9.40;;
61821;SDS011;47749;51.104;7.008;2023-12-04T00:56:22;14.43;;;9.10;;
61821;SDS011;47749;51.104;7.008;2023-12-04T00:56:42;15.67;;;9.33;;
61821;SDS011;47749;51.104;7.008;2023-12-04T00:57:02;17.30;;;9.40;;
61821;SDS011;47749;51.104;7.008;2023-12-04T00:57:22;15.55;;;9.23;;
61821;SDS011;47749;51.104;7.008;2023-12-04T00:57:43;14.30;;;8.90;;
61821;SDS011;47749;51.104;7.008;2023-12-04T00:58:03;14.27;;;8.73;;
61821;SDS011;47749;51.104;7.008;2023-12-04T00:58:23;15.20;;;8.90;;
61821;SDS011;47749;51.104;7.008;2023-12-04T00:58:44;16.20;;;9.23;;
61821;SDS011;47749;51.104;7.008;2023-12-04T00:59:04;15.83;;;9.17;;
61821;SDS011;47749;51.104;7.008;2023-12-04T00:59:26;14.98;;;8.82;;
61821;SDS011;47749;51.104;7.008;2023-12-04T00:59:46;14.43;;;9.17;;
61821;SDS011;47749;51.104;7.008;2023-12-04T01:00:07;14.60;;;9.17;;
61821;SDS011;47749;51.104;7.008;2023-12-04T01:00:27;14.87;;;9.43;;
61821;SDS011;47749;51.104;7.008;2023-12-04T01:00:47;14.03;;;8.83;;
61821;SDS011;47749;51.104;7.008;2023-12-04T01:01:08;14.75;;;8.70;;
61821;SDS011;47749;51.104;7.008;2023-12-04T01:01:29;13.40;;;8.20;;
61821;SDS011;47749;51.104;7.008;2023-12-04T01:01:49;14.50;;;7.97;;
61821;SDS011;47749;51.104;7.008;2023-12-04T01:02:09;13.93;;;7.85;;
61821;SDS011;47749;51.104;7.008;2023-12-04T01:02:30;14.17;;;7.37;;
61821;SDS011;47749;51.104;7.008;2023-12-04T01:02:51;14.60;;;7.57;;
61821;SDS011;47749;51.104;7.008;2023-12-04T01:03:11;14.90;;;8.60;;
61821;SDS011;47749;51.104;7.008;2023-12-04T01:03:31;14.93;;;8.85;;
61821;SDS011;47749;51.104;7.008;2023-12-04T01:03:53;14.13;;;9.00;;
61821;SDS011;47749;51.104;7.008;2023-12-04T01:04:13;14.88;;;8.80;;
61821;SDS011;47749;51.104;7.008;2023-12-04T01:04:33;15.63;;;9.20;;
61821;SDS011;47749;51.104;7.008;2023-12-04T01:04:53;15.13;;;9.00;;
61821;SDS011;47749;51.104;7.008;2023-12-04T01:05:13;14.97;;;8.83;;
61821;SDS011;47749;51.104;7.008;2023-12-04T01:05:34;14.60;;;8.80;;
61821;SDS011;47749;51.104;7.008;2023-12-04T01:05:54;14.50;;;8.67;;
61821;SDS011;47749;51.104;7.008;2023-12-04T01:06:21;16.20;;;8.68;;
61821;SDS011;47749;51.104;7.008;2023-12-04T01:06:42;14.00;;;8.40;;
61821;SDS011;47749;51.104;7.008;2023-12-04T01:07:02;13.67;;;8.70;;
61821;SDS011;47749;51.104;7.008;2023-12-04T01:07:23;14.23;;;9.03;;
61821;SDS011;47749;51.104;7.008;2023-12-04T01:07:43;15.03;;;8.50;;
61821;SDS011;47749;51.104;7.008;2023-12-04T01:08:03;13.63;;;7.67;;
61821;SDS011;47749;51.104;7.008;2023-12-04T01:08:24;15.30;;;8.80;;
61821;SDS011;47749;51.104;7.008;2023-12-04T01:08:44;15.82;;;8.80;;
61821;SDS011;47749;51.104;7.008;2023-12-04T01:09:04;15.43;;;8.73;;
61821;SDS011;47749;51.104;7.008;2023-12-04T01:09:25;14.17;;;8.27;;
61821;SDS011;47749;51.104;7.008;2023-12-04T01:09:45;14.65;;;8.13;;
61821;SDS011;47749;51.104;7.008;2023-12-04T01:10:05;14.07;;;8.73;;
61821;SDS011;47749;51.104;7.008;2023-12-04T01:10:26;13.35;;;8.45;;
61821;SDS011;47749;51.104;7.008;2023-12-04T01:10:46;15.73;;;9.03;;
61821;SDS011;47749;51.104;7.008;2023-12-04T01:11:06;15.17;;;9.03;;
61821;SDS011;47749;51.104;7.008;2023-12-04T01:11:26;14.30;;;8.63;;
61821;SDS011;47749;51.104;7.008;2023-12-04T01:11:47;15.97;;;8.90;;
61821;SDS011;47749;51.104;7.008;2023-12-04T01:12:07;15.73;;;8.40;;
61821;SDS011;47749;51.104;7.008;2023-12-04T01:12:27;14.35;;;8.63;;
61821;SDS011;47749;51.104;7.008;2023-12-04T01:12:47;13.73;;;8.30;;
61821;SDS011;47749;51.104;7.008;2023-12-04T01:13:08;17.53;;;9.50;;
61821;SDS011;47749;51.104;7.008;2023-12-04T01:13:28;15.32;;;9.00;;
61821;SDS011;47749;51.104;7.008;2023-12-04T01:13:49;14.93;;;8.97;;
61821;SDS011;47749;51.104;7.008;2023-12-04T01:14:09;16.20;;;8.80;;
61821;SDS011;47749;51.104;7.008;2023-12-04T01:14:29;15.17;;;8.77;;
61821;SDS011;47749;51.104;7.008;2023-12-04T01:14:50;14.77;;;8.82;;
61821;SDS011;47749;51.104;7.008;2023-12-04T01:15:10;13.27;;;8.23;;
61821;SDS011;47749;51.104;7.008;2023-12-04T01:15:30;13.43;;;8.17;;
61821;SDS011;47749;51.104;7.008;2023-12-04T01:15:50;14.65;;;8.25;;
61821;SDS011;47749;51.104;7.008;2023-12-04T01:16:11;15.27;;;9.00;;
61821;SDS011;47749;51.104;7.008;2023-12-04T01:16:32;16.00;;;8.95;;
61821;SDS011;47749;51.104;7.008;2023-12-04T01:16:52;14.70;;;8.30;;
61821;SDS011;47749;51.104;7.008;2023-12-04T01:17:12;14.40;;;8.45;;
61821;SDS011;47749;51.104;7.008;2023-12-04T01:17:33;15.17;;;9.00;;
61821;SDS011;47749;51.104;7.008;2023-12-04T01:17:53;15.13;;;8.73;;
61821;SDS011;47749;51.104;7.008;2023-12-04T01:18:13;15.60;;;8.93;;
61821;SDS011;47749;51.104;7.008;2023-12-04T01:18:34;14.30;;;8.02;;
61821;SDS011;47749;51.104;7.008;2023-12-04T01:18:54;14.33;;;8.23;;
61821;SDS011;47749;51.104;7.008;2023-12-04T01:19:14;14.97;;;8.37;;
61821;SDS011;47749;51.104;7.008;2023-12-04T01:19:34;15.90;;;9.13;;
61821;SDS011;47749;51.104;7.008;2023-12-04T01:19:55;15.27;;;8.87;;
61821;SDS011;47749;51.104;7.008;2023-12-04T01:20:15;15.70;;;9.23;;
61821;SDS011;47749;51.104;7.008;2023-12-04T01:20:35;14.40;;;8.98;;
61821;SDS011;47749;51.104;7.008;2023-12-04T01:20:56;13.68;;;8.55;;
61821;SDS011;47749;51.104;7.008;2023-12-04T01:21:16;14.43;;;8.53;;
61821;SDS011;47749;51.104;7.008;2023-12-04T01:21:37;14.47;;;8.50;;
61821;SDS011;47749;51.104;7.008;2023-12-04T01:21:57;15.68;;;8.85;;
61821;SDS011;47749;51.104;7.008;2023-12-04T01:22:17;14.90;;;8.90;;
61821;SDS011;47749;51.104;7.008;2023-12-04T01:22:38;14.67;;;9.03;;
61821;SDS011;47749;51.104;7.008;2023-12-04T01:22:58;14.18;;;8.43;;
61821;SDS011;47749;51.104;7.008;2023-12-04T01:23:18;15.67;;;8.87;;
61821;SDS011;47749;51.104;7.008;2023-12-04T01:23:38;15.60;;;8.73;;
61821;SDS011;47749;51.104;7.008;2023-12-04T01:23:58;14.70;;;8.35;;
61821;SDS011;47749;51.104;7.008;2023-12-04T01:24:19;14.27;;;8.30;;
61821;SDS011;47749;51.104;7.008;2023-12-04T01:24:39;13.93;;;8.83;;
61821;SDS011;47749;51.104;7.008;2023-12-04T01:24:59;13.55;;;8.57;;
61821;SDS011;47749;51.104;7.008;2023-12-04T01:25:20;14.73;;;8.77;;
61821;SDS011;47749;51.104;7.008;2023-12-04T01:25:40;14.32;;;8.80;;
61821;SDS011;47749;51.104;7.008;2023-12-04T01:26:01;14.27;;;8.50;;
61821;SDS011;47749;51.104;7.008;2023-12-04T01:26:21;14.00;;;8.43;;
61821;SDS011;47749;51.104;7.008;2023-12-04T01:26:42;15.53;;;8.87;;
61821;SDS011;47749;51.104;7.008;2023-12-04T01:27:02;15.20;;;9.07;;
61821;SDS011;47749;51.104;7.008;2023-12-04T01:27:22;13.80;;;8.43;;
61821;SDS011;47749;51.104;7.008;2023-12-04T01:27:42;14.10;;;8.50;;
61821;SDS011;47749;51.104;7.008;2023-12-04T01:28:03;14.02;;;8.35;;
61821;SDS011;47749;51.104;7.008;2023-12-04T01:28:23;14.13;;;8.40;;
61821;SDS011;47749;51.104;7.008;2023-12-04T01:28:43;12.47;;;7.60;;
61821;SDS011;47749;51.104;7.008;2023-12-04T01:29:03;13.07;;;7.43;;
61821;SDS011;47749;51.104;7.008;2023-12-04T01:29:24;13.60;;;8.27;;
61821;SDS011;47749;51.104;7.008;2023-12-04T01:29:44;13.87;;;7.73;;
61821;SDS011;47749;51.104;7.008;2023-12-04T01:30:05;15.32;;;8.65;;
61821;SDS011;47749;51.104;7.008;2023-12-04T01:30:25;14.80;;;8.85;;
61821;SDS011;47749;51.104;7.008;2023-12-04T01:30:46;14.13;;;8.37;;
61821;SDS011;47749;51.104;7.008;2023-12-04T01:31:06;14.50;;;7.65;;
61821;SDS011;47749;51.104;7.008;2023-12-04T01:31:26;15.43;;;8.47;;
61821;SDS011;47749;51.104;7.008;2023-12-04T01:31:46;16.20;;;9.00;;
61821;SDS011;47749;51.104;7.008;2023-12-04T01:32:07;14.00;;;8.65;;
61821;SDS011;47749;51.104;7.008;2023-12-04T01:32:27;13.57;;;8.40;;
61821;SDS011;47749;51.104;7.008;2023-12-04T01:32:47;15.30;;;8.30;;
61821;SDS011;47749;51.104;7.008;2023-12-04T01:33:08;15.73;;;8.38;;
61821;SDS011;47749;51.104;7.008;2023-12-04T01:33:29;14.60;;;8.80;;
61821;SDS011;47749;51.104;7.008;2023-12-04T01:33:50;14.43;;;8.18;;
61821;SDS011;47749;51.104;7.008;2023-12-04T01:34:10;14.07;;;8.53;;
61821;SDS011;47749;51.104;7.008;2023-12-04T01:34:30;14.85;;;8.93;;
61821;SDS011;47749;51.104;7.008;2023-12-04T01:34:50;15.23;;;8.80;;
61821;SDS011;47749;51.104;7.008;2023-12-04T01:35:11;14.47;;;8.37;;
61821;SDS011;47749;51.104;7.008;2023-12-04T01:35:31;13.48;;;7.85;;
61821;SDS011;47749;51.104;7.008;2023-12-04T01:35:51;14.23;;;8.20;;
61821;SDS011;47749;51.104;7.008;2023-12-04T01:36:12;15.07;;;8.30;;
61821;SDS011;47749;51.104;7.008;2023-12-04T01:36:32;15.20;;;8.40;;
61821;SDS011;47749;51.104;7.008;2023-12-04T01:36:53;15.35;;;8.57;;
61821;SDS011;47749;51.104;7.008;2023-12-04T01:37:13;14.53;;;8.50;;
61821;SDS011;47749;51.104;7.008;2023-12-04T01:37:33;14.03;;;8.43;;
61821;SDS011;47749;51.104;7.008;2023-12-04T01:37:54;14.05;;;8.57;;
61821;SDS011;47749;51.104;7.008;2023-12-04T01:38:14;14.87;;;8.60;;
61821;SDS011;47749;51.104;7.008;2023-12-04T01:38:34;13.93;;;8.27;;
61821;SDS011;47749;51.104;7.008;2023-12-04T01:38:54;13.60;;;8.07;;
61821;SDS011;47749;51.104;7.008;2023-12-04T01:39:14;13.23;;;7.67;;
61821;SDS011;47749;51.104;7.008;2023-12-04T01:39:35;14.20;;;8.30;;
61821;SDS011;47749;51.104;7.008;2023-12-04T01:39:55;14.13;;;8.43;;
61821;SDS011;47749;51.104;7.008;2023-12-04T01:40:15;14.57;;;8.83;;
61821;SDS011;47749;51.104;7.008;2023-12-04T01:40:35;14.77;;;8.47;;
61821;SDS011;47749;51.104;7.008;2023-12-04T01:40:56;14.55;;;8.00;;
61821;SDS011;47749;51.104;7.008;2023-12-04T01:41:16;13.63;;;8.47;;
61821;SDS011;47749;51.104;7.008;2023-12-04T01:41:37;14.55;;;8.90;;
61821;SDS011;47749;51.104;7.008;2023-12-04T01:41:57;14.63;;;8.73;;
61821;SDS011;47749;51.104;7.008;2023-12-04T01:42:17;14.90;;;9.00;;
61821;SDS011;47749;51.104;7.008;2023-12-04T01:42:38;14.83;;;8.63;;
61821;SDS011;47749;51.104;7.008;2023-12-04T01:42:58;15.10;;;8.63;;
61821;SDS011;47749;51.104;7.008;2023-12-04T01:43:18;13.90;;;8.23;;
61821;SDS011;47749;51.104;7.008;2023-12-04T01:43:38;14.00;;;8.30;;
61821;SDS011;47749;51.104;7.008;2023-12-04T01:43:59;13.07;;;8.13;;
61821;SDS011;47749;51.104;7.008;2023-12-04T01:44:19;15.23;;;8.70;;
61821;SDS011;47749;51.104;7.008;2023-12-04T01:44:39;15.10;;;9.03;;
61821;SDS011;47749;51.104;7.008;2023-12-04T01:44:59;14.37;;;8.20;;
61821;SDS011;47749;51.104;7.008;2023-12-04T01:45:20;13.05;;;7.57;;
61821;SDS011;47749;51.104;7.008;2023-12-04T01:45:40;14.37;;;8.20;;
61821;SDS011;47749;51.104;7.008;2023-12-04T01:46:00;13.70;;;8.03;;
61821;SDS011;47749;51.104;7.008;2023-12-04T01:46:21;14.52;;;8.13;;
61821;SDS011;47749;51.104;7.008;2023-12-04T01:46:41;14.77;;;8.30;;
61821;SDS011;47749;51.104;7.008;2023-12-04T01:47:02;14.02;;;7.90;;
61821;SDS011;47749;51.104;7.008;2023-12-04T01:47:23;15.30;;;8.27;;
61821;SDS011;47749;51.104;7.008;2023-12-04T01:47:44;12.80;;;8.05;;
61821;SDS011;47749;51.104;7.008;2023-12-04T01:48:05;13.38;;;8.20;;
61821;SDS011;47749;51.104;7.008;2023-12-04T01:48:26;15.48;;;8.57;;
61821;SDS011;47749;51.104;7.008;2023-12-04T01:48:47;14.20;;;7.80;;
61821;SDS011;47749;51.104;7.008;2023-12-04T01:49:07;14.07;;;7.80;;
61821;SDS011;47749;51.104;7.008;2023-12-04T01:49:27;14.87;;;8.20;;
61821;SDS011;47749;51.104;7.008;2023-12-04T01:49:48;14.05;;;8.27;;
61821;SDS011;47749;51.104;7.008;2023-12-04T01:50:08;13.67;;;7.73;;
61821;SDS011;47749;51.104;7.008;2023-12-04T01:50:29;13.20;;;8.32;;
61821;SDS011;47749;51.104;7.008;2023-12-04T01:50:49;13.10;;;8.50;;
61821;SDS011;47749;51.104;7.008;2023-12-04T01:51:09;13.70;;;8.27;;
61821;SDS011;47749;51.104;7.008;2023-12-04T01:51:30;13.45;;;8.30;;
61821;SDS011;47749;51.104;7.008;2023-12-04T01:51:50;13.40;;;7.83;;
61821;SDS011;47749;51.104;7.008;2023-12-04T01:52:11;12.33;;;6.87;;
61821;SDS011;47749;51.104;7.008;2023-12-04T01:52:31;10.60;;;6.43;;
61821;SDS011;47749;51.104;7.008;2023-12-04T01:52:52;13.10;;;7.97;;
61821;SDS011;47749;51.104;7.008;2023-12-04T01:53:12;14.57;;;8.50;;
61821;SDS011;47749;51.104;7.008;2023-12-04T01:53:32;14.83;;;8.67;;
61821;SDS011;47749;51.104;7.008;2023-12-04T01:53:53;13.83;;;8.20;;
61821;SDS011;47749;51.104;7.008;2023-12-04T01:54:13;12.68;;;8.30;;
61821;SDS011;47749;51.104;7.008;2023-12-04T01:54:34;13.88;;;8.60;;
61821;SDS011;47749;51.104;7.008;2023-12-04T01:54:55;13.68;;;8.40;;
61821;SDS011;47749;51.104;7.008;2023-12-04T01:55:15;13.53;;;8.20;;
61821;SDS011;47749;51.104;7.008;2023-12-04T01:55:36;14.13;;;8.35;;
61821;SDS011;47749;51.104;7.008;2023-12-04T01:55:57;14.30;;;9.05;;
61821;SDS011;47749;51.104;7.008;2023-12-04T01:56:17;14.97;;;8.90;;
61821;SDS011;47749;51.104;7.008;2023-12-04T01:56:37;14.50;;;8.70;;
61821;SDS011;47749;51.104;7.008;2023-12-04T01:56:58;13.37;;;8.47;;
61821;SDS011;47749;51.104;7.008;2023-12-04T01:57:18;13.93;;;7.97;;
61821;SDS011;47749;51.104;7.008;2023-12-04T01:57:38;14.68;;;8.18;;
61821;SDS011;47749;51.104;7.008;2023-12-04T01:57:59;13.30;;;8.03;;
61821;SDS011;47749;51.104;7.008;2023-12-04T01:58:20;12.90;;;7.90;;
61821;SDS011;47749;51.104;7.008;2023-12-04T01:58:41;14.07;;;7.80;;
61821;SDS011;47749;51.104;7.008;2023-12-04T01:59:01;13.07;;;7.55;;
61821;SDS011;47749;51.104;7.008;2023-12-04T01:59:22;13.05;;;8.15;;
61821;SDS011;47749;51.104;7.008;2023-12-04T01:59:42;13.80;;;8.17;;
61821;SDS011;47749;51.104;7.008;2023-12-04T02:00:03;13.80;;;8.18;;
61821;SDS011;47749;51.104;7.008;2023-12-04T02:00:31;15.18;;;8.43;;
61821;SDS011;47749;51.104;7.008;2023-12-04T02:00:52;14.03;;;8.40;;
61821;SDS011;47749;51.104;7.008;2023-12-04T02:01:12;13.93;;;8.70;;